createdAt,value
2022-08-31T00:05:43.400Z,29.34
2022-08-31T00:12:31.532Z,29.24
2022-08-31T00:19:17.364Z,29.13
2022-08-31T00:26:03.420Z,29.04
2022-08-31T00:32:51.561Z,27.76
2022-08-31T00:39:37.712Z,29.13
2022-08-31T00:46:27.827Z,29.12
2022-08-31T00:53:16.026Z,29.03
2022-08-31T01:00:04.527Z,29.00
2022-08-31T01:06:51.850Z,28.93
2022-08-31T01:13:40.297Z,28.93
2022-08-31T01:20:32.745Z,28.90
2022-08-31T01:27:25.796Z,28.85
2022-08-31T01:34:12.460Z,28.86
2022-08-31T01:41:02.648Z,28.78
2022-08-31T01:47:51.121Z,28.63
2022-08-31T01:54:36.696Z,28.58
2022-08-31T02:01:34.641Z,28.51
2022-08-31T02:08:23.465Z,28.52
2022-08-31T02:15:11.505Z,28.54
2022-08-31T02:21:57.532Z,28.38
2022-08-31T02:28:45.544Z,28.39
2022-08-31T02:35:31.029Z,28.27
2022-08-31T02:42:16.255Z,28.30
2022-08-31T03:02:55.422Z,27.65
2022-08-31T03:09:41.858Z,27.55
2022-08-31T03:16:29.414Z,27.32
2022-08-31T03:23:18.111Z,27.35
2022-08-31T03:30:06.108Z,27.31
2022-08-31T03:36:53.162Z,27.23
2022-08-31T03:43:41.888Z,26.76
2022-08-31T03:50:29.584Z,27.23
2022-08-31T03:57:20.160Z,27.25
2022-08-31T04:04:09.494Z,27.23
2022-08-31T04:11:16.172Z,27.20
2022-08-31T04:18:20.760Z,27.09
2022-08-31T04:25:12.504Z,27.18
2022-08-31T04:32:03.931Z,27.09
2022-08-31T04:38:53.014Z,26.67
2022-08-31T04:45:46.163Z,26.85
2022-08-31T04:52:32.594Z,26.47
2022-08-31T04:59:26.132Z,27.07
2022-08-31T05:06:40.307Z,26.93
2022-08-31T05:13:26.309Z,26.64
2022-08-31T05:20:13.110Z,26.75
2022-08-31T05:27:01.909Z,26.61
2022-08-31T05:33:48.871Z,26.54
2022-08-31T05:40:36.255Z,26.40
2022-08-31T05:47:24.409Z,25.84
2022-08-31T05:54:11.213Z,26.25
2022-08-31T06:00:56.666Z,26.30
2022-08-31T06:08:16.596Z,26.26
2022-08-31T06:15:05.515Z,26.20
2022-08-31T06:21:51.887Z,26.12
2022-08-31T06:28:46.411Z,25.85
2022-08-31T06:35:32.646Z,25.38
2022-08-31T06:42:36.674Z,24.88
2022-08-31T06:49:25.058Z,24.60
2022-08-31T06:56:20.326Z,24.60
2022-08-31T07:03:36.021Z,24.72
2022-08-31T07:10:24.179Z,24.82
2022-08-31T07:17:10.566Z,24.94
2022-08-31T07:23:57.852Z,25.01
2022-08-31T07:30:46.046Z,25.11
2022-08-31T07:37:46.765Z,24.94
2022-08-31T07:44:34.589Z,25.35
2022-08-31T07:51:24.414Z,25.40
2022-08-31T07:58:28.583Z,25.46
2022-08-31T08:05:21.284Z,25.49
2022-08-31T08:12:36.384Z,25.38
2022-08-31T08:19:40.137Z,25.46
2022-08-31T08:26:26.419Z,25.02
2022-08-31T08:33:40.697Z,25.45
2022-08-31T08:40:37.300Z,25.49
2022-08-31T08:47:37.960Z,25.52
2022-08-31T08:54:34.073Z,25.59
2022-08-31T09:01:30.597Z,25.66
2022-08-31T09:08:51.000Z,25.40
2022-08-31T09:16:04.645Z,25.64
2022-08-31T09:22:57.217Z,24.99
2022-08-31T09:29:46.281Z,25.59
2022-08-31T09:36:41.540Z,25.58
2022-08-31T09:43:38.799Z,25.57
2022-08-31T09:50:36.799Z,25.56
2022-08-31T09:57:47.824Z,25.65
2022-08-31T10:04:38.161Z,25.73
2022-08-31T10:11:26.678Z,25.84
2022-08-31T10:18:20.152Z,25.93
2022-08-31T10:25:21.511Z,25.77
2022-08-31T10:32:23.837Z,26.25
2022-08-31T10:39:36.337Z,26.32
2022-08-31T10:46:22.288Z,26.39
2022-08-31T10:53:34.642Z,26.42
2022-08-31T11:00:48.917Z,26.46
2022-08-31T11:07:45.425Z,26.59
2022-08-31T11:15:06.017Z,26.76
2022-08-31T11:22:28.663Z,26.80
2022-08-31T11:29:36.958Z,26.91
2022-08-31T11:36:52.886Z,26.83
2022-08-31T11:43:54.767Z,27.00
2022-08-31T11:51:07.878Z,27.07
2022-08-31T11:58:21.179Z,27.19
2022-08-31T12:05:10.559Z,27.41
2022-08-31T12:12:07.618Z,27.54
2022-08-31T12:19:26.288Z,27.73
2022-08-31T12:26:45.691Z,27.73
2022-08-31T12:33:33.366Z,27.72
2022-08-31T12:40:23.558Z,27.85
2022-08-31T12:47:26.185Z,27.71
2022-08-31T12:54:46.606Z,27.85
2022-08-31T13:01:32.560Z,28.05
2022-08-31T13:08:31.144Z,28.25
2022-08-31T13:15:26.882Z,28.45
2022-08-31T13:22:17.374Z,28.63
2022-08-31T13:29:10.872Z,28.79
2022-08-31T13:36:03.966Z,28.37
2022-08-31T13:42:57.085Z,29.13
2022-08-31T13:49:49.864Z,29.16
2022-08-31T13:56:59.055Z,29.60
2022-08-31T14:03:57.224Z,29.53
2022-08-31T14:10:49.996Z,29.42
2022-08-31T14:17:35.960Z,29.27
2022-08-31T14:24:21.504Z,29.12
2022-08-31T14:31:24.664Z,29.01
2022-08-31T14:38:15.367Z,29.00
2022-08-31T14:45:04.997Z,28.92
2022-08-31T14:51:53.329Z,28.58
2022-08-31T14:58:42.149Z,28.95
2022-08-31T15:05:29.376Z,28.95
2022-08-31T15:12:18.440Z,28.96
2022-08-31T15:19:05.729Z,28.98
2022-08-31T15:25:51.168Z,29.03
2022-08-31T15:32:46.344Z,29.05
2022-08-31T15:39:36.360Z,29.10
2022-08-31T15:46:44.009Z,28.13
2022-08-31T15:53:35.453Z,29.34
2022-08-31T16:00:21.321Z,29.47
2022-08-31T16:07:09.283Z,29.54
2022-08-31T16:14:01.268Z,29.55
2022-08-31T16:20:49.157Z,29.51
2022-08-31T16:27:35.002Z,29.46
2022-08-31T16:34:24.169Z,29.44
2022-08-31T16:41:10.985Z,29.33
2022-08-31T16:48:16.589Z,29.41
2022-08-31T16:55:04.653Z,29.45
2022-08-31T17:01:50.439Z,28.97
2022-08-31T17:08:37.252Z,29.30
2022-08-31T17:15:26.761Z,29.23
2022-08-31T17:22:23.406Z,29.18
2022-08-31T17:29:12.447Z,29.22
2022-08-31T17:36:02.419Z,29.14
2022-08-31T17:42:48.514Z,29.07
2022-08-31T17:49:37.917Z,29.01
2022-08-31T17:56:28.555Z,28.98
2022-08-31T18:03:14.044Z,29.04
2022-08-31T18:10:00.270Z,29.11
2022-08-31T18:16:50.590Z,28.96
2022-08-31T18:23:37.955Z,29.23
2022-08-31T18:30:23.778Z,29.26
2022-08-31T18:37:12.959Z,29.27
2022-08-31T18:44:11.303Z,29.27
2022-08-31T18:50:59.080Z,28.88
2022-08-31T18:57:49.059Z,29.20
2022-08-31T19:04:35.319Z,29.02
2022-08-31T19:11:23.527Z,29.07
2022-08-31T19:18:11.893Z,28.96
2022-08-31T19:24:59.463Z,28.84
2022-08-31T19:31:51.959Z,28.70
2022-08-31T19:38:40.586Z,28.57
2022-08-31T19:45:42.340Z,28.45
2022-08-31T19:52:28.664Z,28.27
2022-08-31T19:59:20.127Z,28.30
2022-08-31T20:06:09.795Z,27.93
2022-08-31T20:12:56.248Z,27.80
2022-08-31T20:19:45.057Z,27.63
2022-08-31T20:26:36.166Z,27.54
2022-08-31T20:33:25.301Z,27.41
2022-08-31T20:40:17.188Z,27.24
2022-08-31T20:47:18.382Z,27.13
2022-08-31T20:54:04.795Z,27.01
2022-08-31T21:00:52.860Z,26.57
2022-08-31T21:07:38.306Z,26.83
2022-08-31T21:14:26.276Z,26.67
2022-08-31T21:21:18.433Z,26.13
2022-08-31T21:28:03.836Z,26.31
2022-08-31T21:34:49.396Z,26.17
2022-08-31T21:41:38.908Z,26.05
2022-08-31T21:48:26.049Z,25.92
2022-08-31T21:55:13.694Z,25.73
2022-08-31T22:02:04.176Z,25.48
2022-08-31T22:08:50.707Z,25.58
2022-08-31T22:15:37.441Z,25.44
2022-08-31T22:22:25.582Z,25.30
2022-08-31T22:29:15.293Z,25.26
2022-08-31T22:36:00.740Z,25.04
2022-08-31T22:42:51.867Z,25.10
2022-08-31T22:49:37.542Z,25.08
2022-08-31T22:56:27.667Z,25.05
2022-08-31T23:03:15.801Z,25.02
2022-08-31T23:10:02.402Z,25.02
2022-08-31T23:16:57.303Z,24.96
2022-08-31T23:23:45.850Z,24.97
2022-08-31T23:30:31.567Z,25.02
2022-08-31T23:37:17.934Z,25.03
2022-08-31T23:44:09.268Z,25.02
2022-08-31T23:50:55.483Z,24.99
2022-08-31T23:57:41.890Z,24.75
